Time;durP1;ratioP1;P1;durP2;ratioP2;P2;SDS_P1;SDS_P2;PMS_P1;PMS_P2;Temp;Humidity;BMP_temperature;BMP_pressure;BME280_temperature;BME280_humidity;BME280_pressure;Samples;Min_cycle;Max_cycle;Signal;HPM_P1;HPM_P2
2022/09/25 00:01:24;;;;;;;6.30;2.33;;;8.70;99.90;;;;;;5087016;28;20059;-78
2022/09/25 00:03:50;;;;;;;7.10;3.00;;;8.70;99.90;;;;;;5104240;28;20036;-78
2022/09/25 00:06:19;;;;;;;5.85;2.03;;;8.70;99.90;;;;;;5085447;28;20078;-77
2022/09/25 00:08:45;;;;;;;4.37;2.00;;;8.60;99.90;;;;;;5085341;28;20052;-77
2022/09/25 00:11:17;;;;;;;7.78;2.58;;;8.60;99.90;;;;;;5085714;28;20060;-77
2022/09/25 00:13:44;;;;;;;5.38;2.63;;;8.70;99.90;;;;;;5085646;28;20078;-77
2022/09/25 00:16:12;;;;;;;9.68;2.22;;;8.60;99.90;;;;;;5085284;28;20547;-78
2022/09/25 00:21:29;;;;;;;12.50;2.83;;;8.60;99.90;;;;;;5099933;28;20082;-77
2022/09/25 00:23:59;;;;;;;8.77;2.40;;;8.60;99.90;;;;;;5086092;28;20044;-77
2022/09/25 00:26:27;;;;;;;7.57;2.13;;;8.70;99.90;;;;;;5103570;28;20044;-77
2022/09/25 00:28:54;;;;;;;8.13;2.55;;;8.60;99.90;;;;;;5103484;28;20297;-78
2022/09/25 00:31:23;;;;;;;7.05;2.25;;;8.60;99.90;;;;;;5085954;28;20044;-78
2022/09/25 00:33:53;;;;;;;6.97;2.23;;;8.70;99.90;;;;;;5086014;28;20047;-78
2022/09/25 00:36:19;;;;;;;5.32;2.35;;;8.70;99.90;;;;;;5103738;28;20084;-77
2022/09/25 00:38:47;;;;;;;7.88;2.60;;;8.60;99.90;;;;;;5088720;28;20055;-77
2022/09/25 00:41:14;;;;;;;5.03;2.42;;;8.70;99.90;;;;;;5107043;28;20048;-78
2022/09/25 00:43:43;;;;;;;5.65;2.67;;;8.60;99.90;;;;;;5087471;28;20055;-77
2022/09/25 00:46:27;;;;;;;8.98;2.70;;;8.60;99.90;;;;;;5087030;28;20080;-78
2022/09/25 00:49:02;;;;;;;5.63;2.75;;;8.50;99.90;;;;;;5089960;28;20405;-77
2022/09/25 00:51:37;;;;;;;10.20;3.05;;;8.50;99.90;;;;;;5088904;28;20126;-78
2022/09/25 00:54:05;;;;;;;8.15;3.00;;;8.40;99.90;;;;;;5088262;28;20048;-78
2022/09/25 00:56:37;;;;;;;7.88;2.97;;;8.40;99.90;;;;;;5089584;28;20040;-78
2022/09/25 00:59:04;;;;;;;7.22;2.72;;;8.50;99.90;;;;;;5089707;28;20052;-78
2022/09/25 01:01:30;;;;;;;7.15;2.45;;;8.40;99.90;;;;;;5106467;28;20115;-78
2022/09/25 01:03:56;;;;;;;7.47;3.00;;;8.30;99.90;;;;;;5091599;28;20044;-77
2022/09/25 01:06:25;;;;;;;7.85;3.05;;;8.40;99.90;;;;;;5106307;28;20062;-78
2022/09/25 01:08:51;;;;;;;8.13;3.03;;;8.40;99.90;;;;;;5106013;28;20048;-78
2022/09/25 01:11:16;;;;;;;5.90;2.67;;;8.40;99.90;;;;;;5106226;28;20048;-77
2022/09/25 01:13:42;;;;;;;8.43;2.75;;;8.40;99.90;;;;;;5088653;28;20044;-77
2022/09/25 01:16:27;;;;;;;5.25;2.25;;;8.30;99.90;;;;;;5088088;28;20083;-77
2022/09/25 01:19:20;;;;;;;5.70;2.65;;;8.40;99.90;;;;;;5088589;28;20074;-77
2022/09/25 01:22:13;;;;;;;4.85;2.60;;;8.30;99.90;;;;;;5088778;28;20048;-78
2022/09/25 01:24:47;;;;;;;11.40;3.20;;;8.40;99.90;;;;;;5068543;28;20044;-77
2022/09/25 01:27:32;;;;;;;9.13;3.28;;;8.30;99.90;;;;;;5087764;28;20044;-78
2022/09/25 01:30:14;;;;;;;6.65;2.90;;;8.30;99.90;;;;;;5088820;28;20133;-78
2022/09/25 01:33:04;;;;;;;9.55;3.30;;;8.30;99.90;;;;;;5087824;28;20074;-78
2022/09/25 01:35:45;;;;;;;8.88;3.40;;;8.20;99.90;;;;;;5087155;28;20104;-77
2022/09/25 01:38:37;;;;;;;9.45;2.80;;;8.20;99.90;;;;;;5087467;28;20058;-78
2022/09/25 01:41:11;;;;;;;8.23;2.80;;;8.20;99.90;;;;;;5106830;28;20055;-78
2022/09/25 01:44:18;;;;;;;8.80;2.92;;;8.20;99.90;;;;;;5087980;28;20040;-77
2022/09/25 01:46:50;;;;;;;5.78;2.45;;;8.20;99.90;;;;;;5004595;28;20054;-78
2022/09/25 01:49:25;;;;;;;7.57;3.05;;;8.20;99.90;;;;;;4990580;28;20058;-78
2022/09/25 01:51:53;;;;;;;8.77;3.22;;;8.20;99.90;;;;;;4987141;28;20046;-78
2022/09/25 01:54:47;;;;;;;6.57;2.65;;;8.30;99.90;;;;;;4987577;28;20161;-78
2022/09/25 01:57:20;;;;;;;7.40;2.97;;;8.30;99.90;;;;;;5003001;28;20050;-78
2022/09/25 02:00:01;;;;;;;6.47;2.45;;;8.30;99.90;;;;;;4988356;28;20082;-77
2022/09/25 02:02:35;;;;;;;6.82;2.60;;;8.30;99.90;;;;;;4988340;28;20112;-78
2022/09/25 02:05:07;;;;;;;7.45;2.90;;;8.20;99.90;;;;;;4988137;28;20542;-78
2022/09/25 02:07:43;;;;;;;7.07;2.88;;;8.20;99.90;;;;;;5004220;28;20096;-78
2022/09/25 02:10:15;;;;;;;6.40;2.90;;;8.10;99.90;;;;;;5004540;28;20058;-77
2022/09/25 02:12:46;;;;;;;9.40;2.90;;;8.10;99.90;;;;;;5000028;28;20050;-79
2022/09/25 02:15:29;;;;;;;9.68;3.08;;;8.00;99.90;;;;;;4994834;28;20050;-78
2022/09/25 02:21:09;;;;;;;8.30;2.90;;;8.10;99.90;;;;;;5054044;28;20479;-79
2022/09/25 02:23:52;;;;;;;6.75;2.90;;;8.10;99.90;;;;;;5036864;28;20088;-79
2022/09/25 02:26:33;;;;;;;9.10;3.03;;;8.00;99.90;;;;;;5106194;28;20040;-78
2022/09/25 02:29:01;;;;;;;10.02;2.67;;;8.00;99.90;;;;;;5087630;28;20040;-78
2022/09/25 02:31:37;;;;;;;6.53;2.90;;;8.00;99.90;;;;;;5086550;28;20123;-78
2022/09/25 02:34:03;;;;;;;7.28;2.90;;;8.00;99.90;;;;;;5104436;28;20112;-78
2022/09/25 02:36:31;;;;;;;9.38;3.17;;;8.00;99.90;;;;;;5086751;28;20262;-78
2022/09/25 02:38:56;;;;;;;8.45;2.70;;;7.90;99.90;;;;;;5104768;28;20040;-78
2022/09/25 02:41:33;;;;;;;6.30;3.13;;;7.90;99.90;;;;;;5104978;28;20098;-78
2022/09/25 02:44:05;;;;;;;8.27;2.75;;;7.90;99.90;;;;;;5105053;28;20067;-78
2022/09/25 02:46:47;;;;;;;7.03;2.63;;;7.90;99.90;;;;;;5087450;28;20054;-78
2022/09/25 02:49:25;;;;;;;9.20;3.08;;;7.90;99.90;;;;;;5103040;28;20040;-78
2022/09/25 02:52:08;;;;;;;10.95;3.15;;;7.90;99.90;;;;;;5105763;28;20108;-78
2022/09/25 02:54:55;;;;;;;7.13;2.90;;;7.80;99.90;;;;;;5105270;28;20071;-78
2022/09/25 02:57:30;;;;;;;9.65;2.75;;;7.70;99.90;;;;;;5105548;28;20040;-78
2022/09/25 02:59:59;;;;;;;11.27;2.67;;;7.70;99.90;;;;;;5085596;28;20058;-78
2022/09/25 03:02:31;;;;;;;4.63;2.38;;;7.70;99.90;;;;;;5092214;28;20044;-78
2022/09/25 03:04:58;;;;;;;12.52;3.83;;;7.80;99.90;;;;;;5089689;28;20071;-78
2022/09/25 03:07:24;;;;;;;6.03;2.58;;;7.60;99.90;;;;;;5104317;28;20052;-78
2022/09/25 03:09:53;;;;;;;9.98;3.05;;;7.70;99.90;;;;;;5086125;28;20052;-78
2022/09/25 03:12:19;;;;;;;9.73;2.40;;;7.60;99.90;;;;;;5104796;28;20059;-78
2022/09/25 03:14:45;;;;;;;10.23;3.75;;;7.50;99.90;;;;;;5090535;28;20043;-78
2022/09/25 03:17:12;;;;;;;6.53;3.10;;;7.60;99.90;;;;;;5105516;28;20170;-78
2022/09/25 03:19:38;;;;;;;8.55;3.55;;;7.60;99.90;;;;;;5087005;28;20110;-78
2022/09/25 03:22:04;;;;;;;8.77;3.17;;;7.70;99.90;;;;;;5069211;28;20455;-78
2022/09/25 03:24:30;;;;;;;9.05;3.05;;;7.70;99.90;;;;;;5085813;28;20088;-78
2022/09/25 03:26:56;;;;;;;8.35;3.00;;;7.70;99.90;;;;;;5085953;28;20063;-78
2022/09/25 03:29:22;;;;;;;6.70;2.85;;;7.70;99.90;;;;;;5103883;28;20550;-77
2022/09/25 03:31:47;;;;;;;10.30;3.55;;;7.80;99.90;;;;;;5085288;28;20048;-78
2022/09/25 03:34:15;;;;;;;9.18;3.20;;;7.70;99.90;;;;;;5097233;28;20056;-78
2022/09/25 03:36:43;;;;;;;8.80;3.15;;;7.80;99.90;;;;;;5104075;28;20079;-78
2022/09/25 03:39:09;;;;;;;6.45;3.08;;;7.60;99.90;;;;;;5104585;28;20052;-77
2022/09/25 03:41:36;;;;;;;5.75;2.80;;;7.60;99.90;;;;;;5086059;28;20067;-78
2022/09/25 03:44:02;;;;;;;10.68;3.83;;;7.60;99.90;;;;;;5086051;28;20048;-78
2022/09/25 03:46:30;;;;;;;5.38;2.58;;;7.70;99.90;;;;;;5086292;28;20040;-77
2022/09/25 03:48:57;;;;;;;9.75;3.17;;;7.70;99.90;;;;;;5086037;28;20048;-78
2022/09/25 03:51:24;;;;;;;10.13;3.22;;;7.60;99.90;;;;;;5104449;28;20040;-78
2022/09/25 03:53:50;;;;;;;9.13;3.03;;;7.70;99.90;;;;;;5085899;28;20048;-78
2022/09/25 03:56:19;;;;;;;10.82;3.28;;;7.70;99.90;;;;;;5085417;28;20087;-78
2022/09/25 03:58:46;;;;;;;7.88;2.80;;;7.80;99.90;;;;;;5086095;28;20044;-79
2022/09/25 04:01:13;;;;;;;6.45;2.60;;;7.80;99.90;;;;;;5104876;28;20115;-77
2022/09/25 04:03:39;;;;;;;6.47;2.70;;;7.70;99.90;;;;;;5093924;28;20036;-78
2022/09/25 04:06:07;;;;;;;6.45;3.25;;;7.80;99.90;;;;;;5086684;28;20043;-78
2022/09/25 04:08:35;;;;;;;10.77;2.92;;;7.70;99.90;;;;;;5085977;28;20048;-78
2022/09/25 04:11:01;;;;;;;11.93;3.13;;;7.80;99.90;;;;;;5104934;28;20178;-78
2022/09/25 04:13:30;;;;;;;9.07;2.70;;;7.90;99.90;;;;;;5118541;28;20032;-78
2022/09/25 04:15:57;;;;;;;11.57;2.95;;;7.90;99.90;;;;;;5109775;28;20433;-78
2022/09/25 04:18:26;;;;;;;6.18;2.58;;;7.80;99.90;;;;;;5090542;28;20395;-78
2022/09/25 04:20:51;;;;;;;7.38;2.70;;;7.80;99.90;;;;;;5090721;28;20060;-78
2022/09/25 04:23:17;;;;;;;4.15;2.70;;;7.70;99.90;;;;;;5090678;28;20048;-78
2022/09/25 04:25:44;;;;;;;7.03;3.35;;;7.70;99.90;;;;;;5108204;28;20039;-78
2022/09/25 04:28:10;;;;;;;10.35;2.70;;;7.70;99.90;;;;;;5104827;28;20044;-78
2022/09/25 04:30:36;;;;;;;8.13;3.17;;;7.70;99.90;;;;;;5107469;28;20054;-78
2022/09/25 04:35:45;;;;;;;7.07;3.20;;;7.70;99.90;;;;;;5106930;28;20055;-78
2022/09/25 04:38:11;;;;;;;8.45;3.03;;;7.70;99.90;;;;;;5088936;28;20040;-78
2022/09/25 04:40:37;;;;;;;6.90;2.80;;;7.60;99.90;;;;;;5089448;28;20059;-78
2022/09/25 04:43:05;;;;;;;10.40;3.15;;;7.60;99.90;;;;;;5088935;28;20052;-78
2022/09/25 04:45:33;;;;;;;8.43;3.28;;;7.60;99.90;;;;;;5088166;28;20071;-78
2022/09/25 04:48:00;;;;;;;11.45;3.38;;;7.50;99.90;;;;;;5074796;28;20040;-78
2022/09/25 04:50:29;;;;;;;12.45;3.45;;;7.60;99.90;;;;;;5088353;28;20086;-78
2022/09/25 04:52:59;;;;;;;10.23;3.20;;;7.60;99.90;;;;;;5089783;28;20071;-78
2022/09/25 04:55:26;;;;;;;9.95;3.05;;;7.50;99.90;;;;;;5088289;28;20040;-78
2022/09/25 04:57:53;;;;;;;8.38;2.90;;;7.50;99.90;;;;;;5088357;28;20059;-78
2022/09/25 05:00:19;;;;;;;8.48;3.53;;;7.50;99.90;;;;;;5071593;28;20040;-78
2022/09/25 05:02:46;;;;;;;12.60;3.28;;;7.40;99.90;;;;;;5088625;28;20040;-77
2022/09/25 05:05:13;;;;;;;9.07;2.90;;;7.40;99.90;;;;;;5088200;28;20047;-78
2022/09/25 05:07:39;;;;;;;8.65;3.15;;;7.30;99.90;;;;;;5088222;28;20064;-78
2022/09/25 05:10:08;;;;;;;9.52;3.20;;;7.30;99.90;;;;;;5088941;28;20040;-78
2022/09/25 05:12:35;;;;;;;7.88;3.20;;;7.20;99.90;;;;;;5088251;28;20143;-78
2022/09/25 05:15:01;;;;;;;9.25;3.00;;;7.30;99.90;;;;;;5071276;28;20043;-78
2022/09/25 05:17:27;;;;;;;5.30;2.90;;;7.30;99.90;;;;;;5054416;28;20075;-78
2022/09/25 05:19:52;;;;;;;6.95;2.88;;;7.40;99.90;;;;;;5088093;28;20079;-78
2022/09/25 05:22:18;;;;;;;6.55;2.80;;;7.40;99.90;;;;;;5105663;28;20036;-79
2022/09/25 05:24:44;;;;;;;5.25;2.55;;;7.40;99.90;;;;;;5105903;28;20044;-78
2022/09/25 05:27:09;;;;;;;5.68;2.47;;;7.40;99.90;;;;;;5082139;28;20048;-78
2022/09/25 05:29:35;;;;;;;9.10;3.00;;;7.40;99.90;;;;;;5086021;28;20052;-78
2022/09/25 05:32:01;;;;;;;5.70;2.85;;;7.30;99.90;;;;;;5097971;28;20104;-78
2022/09/25 05:34:26;;;;;;;9.27;3.33;;;7.40;99.90;;;;;;5106096;28;20490;-78
2022/09/25 05:36:52;;;;;;;7.90;3.03;;;7.30;99.90;;;;;;5106009;28;20036;-78
2022/09/25 05:39:18;;;;;;;6.40;3.13;;;7.30;99.90;;;;;;5088372;28;20075;-78
2022/09/25 05:41:43;;;;;;;6.72;2.85;;;7.20;99.90;;;;;;5106138;28;20040;-78
2022/09/25 05:44:10;;;;;;;7.03;2.90;;;7.20;99.90;;;;;;5106935;28;20040;-78
2022/09/25 05:46:36;;;;;;;7.82;3.33;;;7.20;99.90;;;;;;5105261;28;20044;-78
2022/09/25 05:49:02;;;;;;;9.57;2.97;;;7.30;99.90;;;;;;5087520;28;20048;-78
2022/09/25 05:51:28;;;;;;;7.20;3.40;;;7.30;99.90;;;;;;5088697;28;20044;-78
2022/09/25 05:53:54;;;;;;;10.52;3.50;;;7.30;99.90;;;;;;5088928;28;20102;-77
2022/09/25 05:56:23;;;;;;;8.60;3.72;;;7.30;99.90;;;;;;5088302;28;20481;-78
2022/09/25 05:58:50;;;;;;;9.47;3.13;;;7.40;99.90;;;;;;5086942;28;20119;-79
2022/09/25 06:01:16;;;;;;;6.53;2.80;;;7.30;99.90;;;;;;5105278;28;20286;-78
2022/09/25 06:03:41;;;;;;;8.02;3.28;;;7.40;99.90;;;;;;5093147;28;20048;-78
2022/09/25 06:06:07;;;;;;;6.38;3.30;;;7.50;99.90;;;;;;5106568;28;20040;-78
2022/09/25 06:08:36;;;;;;;6.65;4.38;;;7.40;99.90;;;;;;5086874;28;20056;-78
2022/09/25 06:11:03;;;;;;;6.03;3.33;;;7.50;99.90;;;;;;5087120;28;20082;-78
2022/09/25 06:13:31;;;;;;;15.32;3.25;;;7.60;99.90;;;;;;5115938;28;20040;-78
2022/09/25 06:15:57;;;;;;;8.77;4.03;;;7.80;99.90;;;;;;5087745;28;20102;-78
2022/09/25 06:18:24;;;;;;;10.25;4.38;;;7.80;99.90;;;;;;5087472;28;20044;-79
2022/09/25 06:20:51;;;;;;;6.88;3.75;;;7.90;99.90;;;;;;5087479;28;20048;-78
2022/09/25 06:23:17;;;;;;;10.40;3.40;;;8.00;99.90;;;;;;5106112;28;20052;-79
2022/09/25 06:25:44;;;;;;;9.40;3.78;;;8.10;99.90;;;;;;5105794;28;20051;-78
2022/09/25 06:28:11;;;;;;;6.53;2.90;;;8.20;99.90;;;;;;5086506;28;20044;-78
2022/09/25 06:30:37;;;;;;;6.10;3.50;;;8.20;99.90;;;;;;5083868;28;20059;-78
2022/09/25 06:33:13;;;;;;;9.20;3.60;;;8.30;99.90;;;;;;5081570;28;20072;-78
2022/09/25 06:35:44;;;;;;;10.00;3.28;;;8.30;99.90;;;;;;5069564;28;20480;-78
2022/09/25 06:38:10;;;;;;;9.30;3.45;;;8.40;99.90;;;;;;5105494;28;20086;-78
2022/09/25 06:40:39;;;;;;;7.35;3.47;;;8.40;99.90;;;;;;5105957;28;20127;-78
2022/09/25 06:43:08;;;;;;;7.18;3.03;;;8.50;99.90;;;;;;5087604;28;20044;-78
2022/09/25 06:45:34;;;;;;;7.45;3.45;;;8.60;99.90;;;;;;5104488;28;20047;-78
2022/09/25 06:48:02;;;;;;;10.43;3.25;;;8.70;99.90;;;;;;5093854;28;20048;-78
2022/09/25 06:50:36;;;;;;;7.78;3.88;;;8.70;99.90;;;;;;5087146;28;20048;-78
2022/09/25 06:53:02;;;;;;;8.43;3.55;;;8.80;99.90;;;;;;5086431;28;20040;-78
2022/09/25 06:55:31;;;;;;;13.18;3.72;;;8.80;99.90;;;;;;5087180;28;20071;-78
2022/09/25 06:57:57;;;;;;;6.97;3.33;;;8.90;99.90;;;;;;5087017;28;20076;-78
2022/09/25 07:00:22;;;;;;;6.68;3.30;;;8.90;99.90;;;;;;5085737;28;20051;-78
2022/09/25 07:05:33;;;;;;;7.55;3.55;;;9.10;99.90;;;;;;5073905;28;20071;-78
2022/09/25 07:07:59;;;;;;;7.82;2.95;;;9.20;99.90;;;;;;5086099;28;20130;-78
2022/09/25 07:10:25;;;;;;;13.60;4.38;;;9.30;99.90;;;;;;5085974;28;20052;-78
2022/09/25 07:12:51;;;;;;;10.90;3.22;;;9.40;99.90;;;;;;5086462;28;20058;-78
2022/09/25 07:15:17;;;;;;;13.57;3.50;;;9.60;99.90;;;;;;5086162;28;20055;-78
2022/09/25 07:17:44;;;;;;;11.65;3.47;;;9.70;99.90;;;;;;5085967;28;20280;-79
2022/09/25 07:20:12;;;;;;;11.27;3.47;;;9.80;99.90;;;;;;5104428;28;20479;-78
2022/09/25 07:22:39;;;;;;;8.98;3.15;;;9.80;99.90;;;;;;5069618;28;20040;-78
2022/09/25 07:25:05;;;;;;;7.63;3.05;;;9.90;99.90;;;;;;5104234;28;20134;-78
2022/09/25 07:27:31;;;;;;;9.52;2.80;;;10.00;99.90;;;;;;5104236;28;20106;-78
2022/09/25 07:29:57;;;;;;;10.15;3.05;;;10.00;99.90;;;;;;5085631;28;20495;-78
2022/09/25 07:32:23;;;;;;;7.50;2.58;;;10.00;99.90;;;;;;5105610;28;20036;-78
2022/09/25 07:34:49;;;;;;;9.32;2.80;;;10.10;99.90;;;;;;5086487;28;20050;-78
2022/09/25 07:37:16;;;;;;;9.60;3.13;;;10.20;99.90;;;;;;5104246;28;20048;-78
2022/09/25 07:39:42;;;;;;;8.57;2.70;;;10.30;99.90;;;;;;5104627;28;20059;-78
2022/09/25 07:42:08;;;;;;;10.13;2.83;;;10.40;99.90;;;;;;5086895;28;20060;-77
2022/09/25 07:44:33;;;;;;;9.27;2.55;;;10.50;99.90;;;;;;5104068;28;20044;-78
2022/09/25 07:47:02;;;;;;;6.35;2.70;;;10.60;99.90;;;;;;5090037;28;20051;-78
2022/09/25 07:49:29;;;;;;;7.22;2.20;;;10.80;99.90;;;;;;5090306;28;20066;-78
2022/09/25 07:51:55;;;;;;;8.10;2.70;;;10.80;99.90;;;;;;5091096;28;20073;-78
2022/09/25 07:54:21;;;;;;;9.45;2.30;;;10.80;99.90;;;;;;5091337;28;20036;-78
2022/09/25 07:56:46;;;;;;;7.53;2.42;;;11.00;99.90;;;;;;5090914;28;20514;-78
2022/09/25 07:59:12;;;;;;;9.75;2.20;;;11.20;99.90;;;;;;5090773;28;20052;-78
2022/09/25 08:01:38;;;;;;;7.53;2.03;;;11.30;99.90;;;;;;5109255;28;20040;-80
2022/09/25 08:04:04;;;;;;;10.38;1.98;;;11.50;99.90;;;;;;5090437;28;20058;-76
2022/09/25 08:06:33;;;;;;;6.68;2.10;;;11.50;99.90;;;;;;5090227;28;20059;-76
2022/09/25 08:08:59;;;;;;;6.00;1.87;;;11.60;99.90;;;;;;5107094;28;20063;-75
2022/09/25 08:11:26;;;;;;;8.18;1.75;;;11.60;99.90;;;;;;5089678;28;20457;-74
2022/09/25 08:13:52;;;;;;;7.22;1.48;;;11.60;99.90;;;;;;5075196;28;20052;-72
2022/09/25 08:16:21;;;;;;;7.13;1.60;;;11.80;99.90;;;;;;5077828;28;20052;-72
2022/09/25 08:18:48;;;;;;;6.35;1.55;;;11.80;99.90;;;;;;5088907;28;20381;-73
2022/09/25 08:21:19;;;;;;;6.53;1.55;;;12.10;99.90;;;;;;5090040;28;20055;-73
2022/09/25 08:23:49;;;;;;;6.13;1.42;;;12.10;99.90;;;;;;5090086;28;20079;-72
2022/09/25 08:26:15;;;;;;;;;;;12.20;99.90;;;;;;5087432;28;20052;-72
2022/09/25 08:28:41;;;;;;;5.95;1.40;;;12.30;99.90;;;;;;5098275;28;20015;-72
2022/09/25 08:31:07;;;;;;;12.88;1.52;;;12.30;99.90;;;;;;5083508;28;20068;-72
2022/09/25 08:33:33;;;;;;;6.55;1.63;;;12.40;99.90;;;;;;5086873;28;20040;-73
2022/09/25 08:36:04;;;;;;;9.63;1.70;;;12.50;99.90;;;;;;5086501;28;20071;-73
2022/09/25 08:38:33;;;;;;;16.10;1.75;;;12.60;99.90;;;;;;5088209;28;20051;-73
2022/09/25 08:41:03;;;;;;;7.53;1.75;;;12.80;99.90;;;;;;5087890;28;20044;-73
2022/09/25 08:43:29;;;;;;;;;;;12.80;99.90;;;;;;5107058;28;20130;-73
2022/09/25 08:49:04;;;;;;;6.72;1.25;;;13.00;99.90;;;;;;5072947;28;20059;-74
2022/09/25 08:51:37;;;;;;;9.75;1.67;;;13.00;99.90;;;;;;5084903;28;20435;-72
2022/09/25 08:54:04;;;;;;;7.63;1.40;;;13.10;99.90;;;;;;5106913;28;20239;-73
2022/09/25 08:56:33;;;;;;;5.57;1.63;;;13.20;99.90;;;;;;5089161;28;20062;-73
2022/09/25 08:59:04;;;;;;;11.00;1.45;;;13.20;99.90;;;;;;5086154;28;20044;-72
2022/09/25 09:01:45;;;;;;;5.32;1.55;;;13.20;99.90;;;;;;5087197;28;20481;-73
2022/09/25 09:04:43;;;;;;;8.40;1.63;;;13.40;99.90;;;;;;5080318;28;20063;-73
2022/09/25 09:07:22;;;;;;;6.80;2.10;;;13.40;99.90;;;;;;5083089;28;20056;-74
2022/09/25 09:09:53;;;;;;;7.65;1.63;;;13.50;99.90;;;;;;5086180;28;20058;-71
2022/09/25 09:12:26;;;;;;;5.45;1.30;;;13.60;99.90;;;;;;5088639;28;20048;-72
2022/09/25 09:15:15;;;;;;;9.23;1.70;;;13.60;99.90;;;;;;5088858;28;20123;-72
2022/09/25 09:17:41;;;;;;;4.32;1.00;;;13.70;99.90;;;;;;5089140;28;20044;-72
2022/09/25 09:20:17;;;;;;;6.82;1.52;;;13.80;99.90;;;;;;5071719;28;20127;-71
2022/09/25 09:22:52;;;;;;;7.50;2.50;;;14.00;99.90;;;;;;5106099;28;20048;-73
2022/09/25 09:25:39;;;;;;;6.45;1.60;;;14.00;99.90;;;;;;5089261;28;20076;-73
2022/09/25 09:28:37;;;;;;;8.05;1.40;;;14.20;99.90;;;;;;5076066;28;20055;-72
2022/09/25 09:31:26;;;;;;;6.28;1.33;;;14.40;99.90;;;;;;4981889;28;20050;-73
2022/09/25 09:34:21;;;;;;;7.28;1.50;;;14.40;99.90;;;;;;5040644;28;20145;-72
2022/09/25 09:37:22;;;;;;;4.70;1.25;;;14.30;99.90;;;;;;5043140;28;20085;-72
2022/09/25 09:40:24;;;;;;;11.13;2.03;;;14.20;99.90;;;;;;5015926;28;20057;-73
2022/09/25 09:42:58;;;;;;;5.55;1.27;;;14.20;99.90;;;;;;5027448;28;20041;-73
2022/09/25 09:45:35;;;;;;;11.75;1.25;;;14.20;99.90;;;;;;5022296;28;20045;-73
2022/09/25 09:48:31;;;;;;;5.43;1.17;;;14.30;99.90;;;;;;5016300;28;20073;-72
2022/09/25 09:51:08;;;;;;;6.78;1.40;;;14.50;99.90;;;;;;5026681;28;20104;-70
2022/09/25 09:53:41;;;;;;;4.65;1.10;;;14.70;99.90;;;;;;5027054;28;20061;-72
2022/09/25 09:56:13;;;;;;;3.65;0.90;;;15.00;99.90;;;;;;5025745;28;20120;-72
2022/09/25 09:58:45;;;;;;;4.60;0.90;;;15.10;99.90;;;;;;5044128;28;20052;-72
2022/09/25 10:01:13;;;;;;;5.35;1.00;;;15.00;99.90;;;;;;5027110;28;20063;-72
2022/09/25 10:03:40;;;;;;;4.97;1.10;;;14.60;99.90;;;;;;4988807;28;20075;-70
2022/09/25 10:06:13;;;;;;;3.03;0.80;;;14.40;99.90;;;;;;5057839;28;20060;-72
2022/09/25 10:08:40;;;;;;;5.32;1.13;;;14.10;99.90;;;;;;5086480;28;20089;-72
2022/09/25 10:11:14;;;;;;;5.03;1.10;;;13.70;99.90;;;;;;5104475;28;20047;-71
2022/09/25 10:13:40;;;;;;;3.03;1.00;;;13.50;99.90;;;;;;5105954;28;20040;-72
2022/09/25 10:16:22;;;;;;;7.25;1.20;;;13.40;99.90;;;;;;5104838;28;20044;-72
2022/09/25 10:18:59;;;;;;;5.85;1.50;;;13.30;99.90;;;;;;5086267;28;20051;-72
2022/09/25 10:21:30;;;;;;;4.65;1.30;;;13.20;99.90;;;;;;5083907;28;20047;-72
2022/09/25 10:24:01;;;;;;;7.07;1.40;;;13.00;99.90;;;;;;5103945;28;20573;-72
2022/09/25 10:26:35;;;;;;;3.83;1.65;;;12.90;99.90;;;;;;5085916;28;20039;-73
2022/09/25 10:29:21;;;;;;;4.07;1.60;;;12.90;99.90;;;;;;5099567;28;20044;-72
2022/09/25 10:31:55;;;;;;;6.20;1.60;;;12.90;99.90;;;;;;5069957;28;20052;-72
2022/09/25 10:34:22;;;;;;;7.80;1.83;;;12.90;99.90;;;;;;5067228;28;20045;-72
2022/09/25 10:36:53;;;;;;;3.08;1.33;;;13.00;99.90;;;;;;5087204;28;20092;-72
2022/09/25 10:39:31;;;;;;;4.40;1.20;;;13.10;99.90;;;;;;5076013;28;20036;-72
2022/09/25 10:42:00;;;;;;;4.13;1.27;;;13.20;99.90;;;;;;5075344;28;20048;-72
2022/09/25 10:44:32;;;;;;;3.20;0.93;;;13.30;99.90;;;;;;5100613;28;20103;-72
2022/09/25 10:50:23;;;;;;;2.80;0.80;;;13.50;99.90;;;;;;5083671;28;20381;-75
2022/09/25 10:53:00;;;;;;;4.45;0.95;;;13.50;99.90;;;;;;5086944;28;20418;-72
2022/09/25 10:55:29;;;;;;;2.03;0.85;;;13.50;99.90;;;;;;5086687;28;20500;-71
2022/09/25 10:58:21;;;;;;;1.05;0.88;;;13.60;99.90;;;;;;5085170;28;20054;-72
2022/09/25 11:00:50;;;;;;;4.95;1.38;;;13.60;99.90;;;;;;5035985;28;20044;-69
2022/09/25 11:03:21;;;;;;;3.85;1.20;;;13.50;99.90;;;;;;5053572;28;20101;-72
2022/09/25 11:06:19;;;;;;;4.18;1.10;;;13.50;99.90;;;;;;5048791;28;20204;-75
2022/09/25 11:08:48;;;;;;;3.15;1.08;;;13.50;99.90;;;;;;5046665;28;20284;-76
2022/09/25 11:11:26;;;;;;;1.45;0.85;;;13.50;99.90;;;;;;5058169;28;20488;-76
2022/09/25 11:14:02;;;;;;;2.22;1.27;;;13.50;99.90;;;;;;5044657;28;20045;-74
2022/09/25 11:16:53;;;;;;;3.42;1.40;;;13.60;99.90;;;;;;5049954;28;20508;-76
2022/09/25 11:19:24;;;;;;;5.95;1.00;;;13.70;99.90;;;;;;5042602;28;20055;-79
2022/09/25 11:22:14;;;;;;;3.45;1.05;;;13.70;99.90;;;;;;5046581;28;20110;-79
2022/09/25 11:24:56;;;;;;;4.97;1.20;;;13.80;99.90;;;;;;5057526;28;20063;-77
2022/09/25 11:27:31;;;;;;;6.35;1.23;;;13.90;99.90;;;;;;5049677;28;20086;-76
2022/09/25 11:30:05;;;;;;;1.85;0.80;;;14.00;99.90;;;;;;5058371;28;20045;-73
2022/09/25 11:32:55;;;;;;;4.60;1.17;;;14.10;99.90;;;;;;5048118;28;20045;-74
2022/09/25 11:35:33;;;;;;;3.10;0.98;;;14.20;99.90;;;;;;5058841;28;20044;-73
2022/09/25 11:38:04;;;;;;;3.05;1.10;;;14.30;99.90;;;;;;5049732;28;20052;-74
2022/09/25 11:43:43;;;;;;;4.97;1.20;;;14.40;99.90;;;;;;5038114;28;20055;-73
2022/09/25 11:46:32;;;;;;;7.38;0.90;;;14.60;99.90;;;;;;5059372;28;20042;-73
2022/09/25 11:49:19;;;;;;;5.57;1.38;;;14.70;99.90;;;;;;5029337;28;20504;-75
2022/09/25 11:52:22;;;;;;;3.67;1.05;;;14.90;99.90;;;;;;5050190;28;20067;-72
2022/09/25 11:55:13;;;;;;;4.00;0.98;;;15.00;99.90;;;;;;5044291;28;20048;-73
2022/09/25 11:58:00;;;;;;;6.85;1.38;;;15.30;99.90;;;;;;5052380;28;20094;-73
2022/09/25 12:00:29;;;;;;;6.30;1.15;;;15.40;99.90;;;;;;5053514;28;20048;-73
2022/09/25 12:03:16;;;;;;;3.08;1.00;;;15.50;99.90;;;;;;5054061;28;20594;-73
2022/09/25 12:06:12;;;;;;;5.32;0.80;;;15.70;99.90;;;;;;5070109;28;20056;-73
2022/09/25 12:09:06;;;;;;;4.57;1.00;;;15.80;99.90;;;;;;5060428;28;20086;-73
2022/09/25 12:11:52;;;;;;;5.32;1.02;;;15.70;99.90;;;;;;5066022;28;20422;-73
2022/09/25 12:14:36;;;;;;;5.82;0.98;;;15.90;99.90;;;;;;5046393;28;20056;-76
2022/09/25 12:17:25;;;;;;;3.65;0.75;;;16.00;99.90;;;;;;5074723;28;20052;-72
2022/09/25 12:20:07;;;;;;;2.70;1.20;;;16.10;99.90;;;;;;5084380;28;20039;-73
2022/09/25 12:22:53;;;;;;;3.25;0.90;;;16.10;99.90;;;;;;5072688;28;20059;-73
2022/09/25 12:25:48;;;;;;;6.63;0.93;;;16.20;99.90;;;;;;5063618;28;20121;-73
2022/09/25 12:28:23;;;;;;;3.13;1.10;;;16.30;99.90;;;;;;5071871;28;20222;-73
2022/09/25 12:31:17;;;;;;;3.45;0.93;;;16.50;99.90;;;;;;5082006;28;20050;-73
2022/09/25 12:33:51;;;;;;;3.22;0.80;;;16.70;99.90;;;;;;5088974;28;20549;-73
2022/09/25 12:36:16;;;;;;;3.80;0.80;;;16.90;99.90;;;;;;5081333;28;20048;-73
2022/09/25 12:39:16;;;;;;;4.90;1.08;;;17.20;99.90;;;;;;5059920;28;20048;-78
2022/09/25 12:42:08;;;;;;;2.60;0.65;;;17.20;99.90;;;;;;5088568;28;20052;-74
2022/09/25 12:44:34;;;;;;;4.38;0.80;;;17.00;99.90;;;;;;5070943;28;20052;-74
2022/09/25 12:47:13;;;;;;;2.50;0.80;;;16.70;99.90;;;;;;5069864;28;20075;-74
2022/09/25 12:49:39;;;;;;;3.00;0.77;;;16.40;99.90;;;;;;5079425;28;20052;-74
2022/09/25 12:52:20;;;;;;;3.78;0.75;;;16.20;99.90;;;;;;5052714;28;20110;-74
2022/09/25 12:54:55;;;;;;;2.80;0.73;;;16.00;99.90;;;;;;5075861;28;20115;-74
2022/09/25 12:57:25;;;;;;;2.15;0.95;;;15.70;99.90;;;;;;5072183;28;20051;-74
2022/09/25 12:59:58;;;;;;;2.80;0.70;;;15.50;99.90;;;;;;5051133;28;20052;-74
2022/09/25 13:02:41;;;;;;;4.75;1.20;;;15.50;99.90;;;;;;5069471;28;20055;-74
2022/09/25 13:05:33;;;;;;;4.50;1.00;;;15.40;99.90;;;;;;5078999;28;20188;-74
2022/09/25 13:08:15;;;;;;;1.65;0.85;;;15.30;99.90;;;;;;5068554;28;20048;-74
2022/09/25 13:10:56;;;;;;;3.20;0.70;;;15.30;99.90;;;;;;5079067;28;20134;-75
2022/09/25 13:13:25;;;;;;;4.22;0.80;;;15.20;99.90;;;;;;5071832;28;20052;-74
2022/09/25 13:15:56;;;;;;;1.10;0.90;;;15.10;99.90;;;;;;5081730;28;20069;-74
2022/09/25 13:18:24;;;;;;;4.63;1.23;;;15.10;99.90;;;;;;5071749;28;20588;-74
2022/09/25 13:20:54;;;;;;;1.83;0.70;;;15.00;99.90;;;;;;5081672;28;20403;-74
2022/09/25 13:23:20;;;;;;;;;;;15.00;99.90;;;;;;5071563;28;20531;-75
2022/09/25 13:25:52;;;;;;;2.60;0.70;;;14.90;99.90;;;;;;5079054;28;19978;-75
2022/09/25 13:28:22;;;;;;;2.13;0.70;;;15.00;99.90;;;;;;5069151;28;20044;-75
2022/09/25 13:31:05;;;;;;;2.03;0.77;;;15.10;99.90;;;;;;5078781;28;20062;-75
2022/09/25 13:33:48;;;;;;;2.55;0.95;;;15.30;99.90;;;;;;5051582;28;20040;-75
2022/09/25 13:36:24;;;;;;;2.97;1.02;;;15.60;99.90;;;;;;5079358;28;20036;-76
2022/09/25 13:42:01;;;;;;;3.47;0.85;;;17.60;99.90;;;;;;5098174;28;20052;-75
2022/09/25 13:44:42;;;;;;;4.60;0.98;;;19.10;99.90;;;;;;5036751;28;20043;-74